Nearby METAR Reports

 

K8A0 - Albertville Muni, Alabama, USA
Distance from station: SW 1mi, 2km
Updated: 01/23/2020 10:55am
Light rain, Overcast
Light rain, Overcast
 Wind from ESE
Wind: ESE 7 mph , 11 km/h, Gust: 16 mph , 26 km/h
Temperature: 36°F , 2°C
Wind Chill: 30°F , -1°C
Dew Point: 34°F , 1°C
Humidity: 93%
Barometer: 30.15 inHg , 1021 hPa
Summary: Light rain
Clouds: Overcast
Visibility: 4 miles , 6 km
Cloud details: Mostly cloudy 800 ft
Overcast 1100 ft
2020/01/23 16:55 K8A0 231655Z AUTO 11006G14KT 4SM -RA BKN008 OVC011 02/01 A3015 RMK AO2 P0004
KGAD - Gadsden Muni, Alabama, USA
Distance from station: SSE 21mi, 35km
Updated: 01/23/2020 8:56am
NOT Current
Light rain, Overcast
Light rain, Overcast
 Wind from NE
Wind: NE 5 mph , 7 km/h
Temperature: 39°F , 4°C
Wind Chill: 35°F , 2°C
Dew Point: 30°F , -1°C
Humidity: 70%
Barometer: 30.23 inHg , 1023.7 hPa
Summary: Light rain
Clouds: Overcast
Visibility: 10 miles , 16 km
Cloud details: Overcast 2200 ft
2020/01/23 14:56 KGAD 231456Z AUTO 05004KT 10SM -RA OVC022 04/M01 A3023 RMK AO2 SLP245 P0001 60001 T00391006 55001
 
K4A6 - Scottsboro, Alabama, USA
Distance from station: NNE 33mi, 53km
Updated: 01/23/2020 10:55am
Light rain
Light rain
 Wind from calm
Wind: Calm
Temperature: 41°F , 5°C
Dew Point: 41°F , 5°C
Humidity: 100%
Barometer: 30.19 inHg , 1022.4 hPa
Summary: Light rain
Visibility: 3 miles , 5 km
2020/01/23 16:55 K4A6 231655Z AUTO 00000KT 3SM -RA 05/05 A3019 RMK AO2
K4A9 - Ft Payne/Isbell, Alabama, USA
Distance from station: ENE 33mi, 54km
Updated: 01/23/2020 10:55am
Light rain, Mist, Overcast
Light rain, Mist, Overcast
 Wind from E
Wind: E 9 mph , 15 km/h, Gust: 20 mph , 31 km/h
Temperature: 39°F , 4°C
Wind Chill: 33°F , 1°C
Dew Point: 36°F , 2°C
Humidity: 87%
Barometer: 30.18 inHg , 1022 hPa
Summary: Light rain, Mist
Clouds: Overcast
Visibility: 5 miles , 8 km
Cloud details: Partly cloudy 2900 ft
Mostly cloudy 4800 ft
Overcast 6000 ft
2020/01/23 16:55 K4A9 231655Z AUTO 08008G17KT 060V130 5SM -RA BR SCT029 BKN048 OVC060 04/02 A3018 RMK AO2 P0001 T00380022
 
KCMD - Cullman/Folsom F, Alabama, USA
Distance from station: W 35mi, 57km
Updated: 01/23/2020 10:55am
Rain, Overcast
Rain, Overcast
 Wind from ESE
Wind: ESE 8 mph , 13 km/h
Temperature: 37°F , 3°C
Wind Chill: 31°F , -1°C
Dew Point: 34°F , 1°C
Humidity: 87%
Barometer: 30.16 inHg , 1021.3 hPa
Summary: Rain
Clouds: Overcast
Visibility: 3 miles , 5 km
Cloud details: Partly cloudy 600 ft
Mostly cloudy 1200 ft
Overcast 2000 ft
2020/01/23 16:55 KCMD 231655Z AUTO 12007KT 090V150 3SM RA SCT006 BKN012 OVC020 03/01 A3016 RMK AO2 P0007 T00290014
KHUA - Redstone Arsenal, Alabama, USA
Distance from station: NW 40mi, 64km
Updated: 01/23/2020 10:58am
Light rain, Mist, Overcast
Light rain, Mist, Overcast
 Wind from S
Wind: S 8 mph , 13 km/h
Temperature: 41°F , 5°C
Wind Chill: 36°F , 2°C
Dew Point: 37°F , 3°C
Humidity: 87%
Barometer: 30.15 inHg , 1021 hPa
Summary: Light rain, Mist
Clouds: Overcast
Visibility: 6 miles , 10 km
Cloud details: Partly cloudy 700 ft
Overcast 2100 ft
2020/01/23 16:58 KHUA 231658Z 19007KT 6SM -RA BR SCT007 OVC021 05/03 A3015 RMK AO2A CIG 007V024 SLPNO P0002 T00450030
 
KHSV - Huntsville, Alabama, USA
Distance from station: NW 42mi, 68km
Updated: 01/23/2020 10:53am
Light rain, Overcast
Light rain, Overcast
 Wind from ESE
Wind: ESE 15 mph , 24 km/h
Temperature: 39°F , 4°C
Wind Chill: 31°F , -1°C
Dew Point: 36°F , 2°C
Humidity: 87%
Barometer: 30.16 inHg , 1021.3 hPa
Summary: Light rain
Clouds: Overcast
Visibility: 9 miles , 14 km
Cloud details: Mostly cloudy 1800 ft
Overcast 2500 ft
2020/01/23 16:53 KHSV 231653Z 12013KT 9SM -RA BKN018 OVC025 04/02 A3016 RMK AO2 SLP214 P0002 T00440017
KMDQ - Huntsville/Madis, Alabama, USA
Distance from station: NNW 47mi, 75km
Updated: 01/23/2020 10:55am
Light rain, Mist, Overcast
Light rain, Mist, Overcast
 Wind from SE
Wind: SE 12 mph , 19 km/h
Temperature: 41°F , 5°C
Wind Chill: 34°F , 1°C
Dew Point: 36°F , 2°C
Humidity: 81%
Barometer: 30.16 inHg , 1021.3 hPa
Summary: Light rain, Mist
Clouds: Overcast
Visibility: 5 miles , 8 km
Cloud details: Mostly cloudy 2700 ft
Overcast 3200 ft
2020/01/23 16:55 KMDQ 231655Z AUTO 14010KT 5SM -RA BR BKN027 OVC032 05/02 A3016 RMK A02 T00470025
 
KASN - Talladega, Alabama, USA
Distance from station: SSE 48mi, 77km
Updated: 01/23/2020 10:55am
Light rain, Overcast
Light rain, Overcast
 Wind from E
Wind: E 7 mph , 11 km/h
Temperature: 39°F , 4°C
Wind Chill: 34°F , 1°C
Dew Point: 37°F , 3°C
Humidity: 93%
Barometer: 30.18 inHg , 1022 hPa
Summary: Light rain
Clouds: Overcast
Visibility: 10 miles , 16 km
Cloud details: Overcast 1800 ft
2020/01/23 16:55 KASN 231655Z AUTO 09006KT 10SM -RA OVC018 04/03 A3018 RMK AO2 P0001 T00410033
KDCU - Decatur, Alabama, USA
Distance from station: NW 49mi, 80km
Updated: 01/23/2020 10:53am
Light rain, Overcast
Light rain, Overcast
 Wind from SE
Wind: SE 7 mph , 11 km/h
Temperature: 39°F , 4°C
Wind Chill: 34°F , 1°C
Dew Point: 36°F , 2°C
Humidity: 87%
Barometer: 30.16 inHg , 1021.3 hPa
Summary: Light rain
Clouds: Overcast
Visibility: 7 miles , 11 km
Cloud details: Overcast 2100 ft
2020/01/23 16:53 KDCU 231653Z AUTO 14006KT 7SM -RA OVC021 04/02 A3016 RMK AO2 SLP216 P0002 T00440022
 
KGKT - Sevierville, Tennessee, USA
Distance from station: NE 235mi, 378km
Updated: 01/23/2020 10:55am
Clear
Clear
 Wind from N
Wind: N 3 mph , 6 km/h
Temperature: 41°F , 5°C
Dew Point: 23°F , -5°C
Humidity: 49%
Barometer: 30.21 inHg , 1023 hPa
Clouds: Clear
Visibility: 10 miles , 16 km
2020/01/23 16:55 KGKT 231655Z AUTO 01003KT 10SM CLR 05/M05 A3021 RMK A01
KECP - Panama City, Florida, USA
Distance from station: S 330mi, 531km
Updated: 01/23/2020 10:53am
Overcast
Overcast
 Wind from ENE
Wind: ENE 8 mph , 13 km/h
Temperature: 54°F , 12°C
Dew Point: 43°F , 6°C
Humidity: 67%
Barometer: 30.11 inHg , 1019.6 hPa
Clouds: Overcast
Visibility: 10 miles , 16 km
Cloud details: Overcast 5500 ft
2020/01/23 16:53 KECP 231653Z 07007KT 10SM OVC055 12/06 A3011 RMK AO2 SLP209 T01220061
 
KNYL - Yuma MCAS, Arizona, USA
Distance from station: SW 1900mi, 3600km
Updated: 01/23/2020 10:57am
Clear
Clear
 Wind from N
Wind: N 8 mph , 13 km/h
Temperature: 61°F , 16°C
Dew Point: 41°F , 5°C
Humidity: 48%
Barometer: 30.16 inHg , 1021.3 hPa
Clouds: Clear
Visibility: 7 miles , 11 km
2020/01/23 16:57 KNYL 231657Z 35007KT 7SM CLR 16/05 A3016 RMK AO2 SLP214 T01560050